Time;durP1;ratioP1;P1;durP2;ratioP2;P2;SDS_P1;SDS_P2;PMS_P1;PMS_P2;Temp;Humidity;BMP_temperature;BMP_pressure;BME280_temperature;BME280_humidity;BME280_pressure;Samples;Min_cycle;Max_cycle;Signal;HPM_P1;HPM_P2
2022/01/19 00:01:14;;;;;;;1.50;1.00;;;;;;;-6.35;72.41;99842.92;105050;1271;74197;-24
2022/01/19 00:03:43;;;;;;;2.10;1.00;;;;;;;-6.05;71.15;99838.18;105166;1270;72938;-22
2022/01/19 00:06:12;;;;;;;3.70;1.60;;;;;;;-6.08;70.93;99831.23;105181;1270;61080;-25
2022/01/19 00:08:41;;;;;;;2.50;1.40;;;;;;;-6.23;71.39;99833.46;105172;1270;61124;-23
2022/01/19 00:11:09;;;;;;;5.30;1.10;;;;;;;-6.41;72.28;99840.70;105194;1271;73074;-23
2022/01/19 00:13:38;;;;;;;8.00;1.20;;;;;;;-6.61;73.01;99842.89;105137;1271;75940;-24
2022/01/19 00:16:06;;;;;;;4.10;1.20;;;;;;;-6.76;73.78;99842.03;105159;1270;74460;-23
2022/01/19 00:18:35;;;;;;;5.80;1.70;;;;;;;-6.87;74.57;99839.48;105122;1271;61096;-23
2022/01/19 00:21:04;;;;;;;3.40;1.20;;;;;;;-6.89;74.82;99847.23;105250;1270;62051;-23
2022/01/19 00:23:33;;;;;;;5.30;2.10;;;;;;;-6.65;74.20;99848.46;105234;1270;75481;-23
2022/01/19 00:26:01;;;;;;;3.80;1.80;;;;;;;-6.19;72.38;99847.30;105211;1270;74904;-23
2022/01/19 00:28:30;;;;;;;5.80;1.20;;;;;;;-6.07;72.05;99854.40;105147;1271;72879;-23
2022/01/19 00:30:58;;;;;;;3.20;1.60;;;;;;;-6.19;72.17;99857.80;105110;1271;61144;-23
2022/01/19 00:33:27;;;;;;;3.30;1.30;;;;;;;-6.43;73.19;99859.80;105237;1271;61961;-23
2022/01/19 00:35:58;;;;;;;5.30;1.80;;;;;;;-6.53;74.01;99857.43;105235;1270;75600;-24
2022/01/19 00:38:27;;;;;;;3.20;1.60;;;;;;;-6.70;75.00;99855.39;105184;1271;74508;-23
2022/01/19 00:40:57;;;;;;;3.20;1.40;;;;;;;-6.75;75.20;99853.85;105134;1271;74150;-23
2022/01/19 00:43:26;;;;;;;4.70;1.60;;;;;;;-6.81;75.77;99850.45;105078;1273;62605;-23
2022/01/19 00:45:54;;;;;;;3.80;1.30;;;;;;;-6.37;74.16;99851.88;105098;1270;61038;-23
2022/01/19 00:48:27;;;;;;;7.00;1.70;;;;;;;-6.12;73.44;99847.48;104955;1271;73500;-24
2022/01/19 00:50:56;;;;;;;1.40;0.70;;;;;;;-6.06;73.20;99843.42;105100;1271;75965;-23
2022/01/19 00:53:25;;;;;;;2.70;1.20;;;;;;;-6.26;73.22;99832.94;104830;1271;74437;-23
2022/01/19 00:55:53;;;;;;;8.20;1.30;;;;;;;-6.39;74.14;99836.15;104977;1271;61231;-23
2022/01/19 00:58:22;;;;;;;2.80;1.40;;;;;;;-6.47;74.60;99839.52;104924;1270;61124;-23
2022/01/19 01:00:50;;;;;;;3.00;1.10;;;;;;;-6.65;75.50;99834.95;104846;1271;74632;-24
2022/01/19 01:03:19;;;;;;;6.80;1.50;;;;;;;-6.73;75.73;99831.56;104992;1271;75759;-23
2022/01/19 01:05:47;;;;;;;4.00;1.20;;;;;;;-6.75;76.31;99826.48;105050;1271;73203;-23
2022/01/19 01:08:17;;;;;;;2.30;1.20;;;;;;;-6.25;74.52;99825.00;105214;1271;61150;-23
2022/01/19 01:10:45;;;;;;;1.80;1.00;;;;;;;-6.00;73.49;99822.94;105217;1270;61138;-23
2022/01/19 01:13:24;;;;;;;1.60;1.20;;;;;;;-6.21;73.93;99817.56;105237;1271;74041;-23
2022/01/19 01:18:28;;;;;;;5.10;1.90;;;;;;;-6.41;74.77;99805.56;105144;1271;73526;-23
2022/01/19 01:21:00;;;;;;;2.30;1.50;;;;;;;-6.61;75.40;99799.14;105059;1271;61291;-23
2022/01/19 01:23:32;;;;;;;3.20;1.40;;;;;;;-6.79;76.23;99801.49;105220;1271;60996;-23
2022/01/19 01:26:02;;;;;;;2.70;0.90;;;;;;;-6.83;76.65;99787.80;105100;1271;75527;-23
2022/01/19 01:28:30;;;;;;;2.70;1.50;;;;;;;-6.36;75.43;99777.67;105125;1271;74968;-23
2022/01/19 01:30:59;;;;;;;1.40;0.90;;;;;;;-6.06;73.91;99772.58;105154;1271;74487;-23
2022/01/19 01:33:27;;;;;;;2.40;1.10;;;;;;;-6.13;74.11;99760.08;105139;1271;61412;-23
2022/01/19 01:35:55;;;;;;;3.60;1.50;;;;;;;-6.25;74.04;99768.38;104920;1271;61008;-23
2022/01/19 01:38:24;;;;;;;2.10;1.10;;;;;;;-6.39;74.54;99766.54;104938;1271;75358;-25
2022/01/19 01:41:12;;;;;;;2.60;0.80;;;;;;;-6.62;75.53;99766.71;104837;1271;75900;-23
2022/01/19 01:43:45;;;;;;;8.10;1.10;;;;;;;-6.90;76.69;99780.35;104848;1271;74453;-23
2022/01/19 01:46:34;;;;;;;3.60;1.30;;;;;;;-7.07;77.59;99786.25;104779;1270;61157;-23
2022/01/19 01:49:13;;;;;;;2.00;1.00;;;;;;;-7.20;78.36;99779.29;105106;1270;61098;-23
2022/01/19 01:54:30;;;;;;;3.50;1.40;;;;;;;-6.45;75.55;99776.84;105115;1271;76020;-23
2022/01/19 01:56:58;;;;;;;3.70;1.20;;;;;;;-6.49;75.34;99779.38;105099;1271;74585;-23
2022/01/19 01:59:26;;;;;;;6.30;1.50;;;;;;;-6.65;76.39;99778.02;105160;1271;61363;-23
2022/01/19 02:02:27;;;;;;;2.50;1.30;;;;;;;-6.79;77.00;99783.59;104808;1271;61077;-23
2022/01/19 02:04:56;;;;;;;4.70;1.50;;;;;;;-6.81;77.19;99787.48;104891;1271;75546;-23
2022/01/19 02:24:17;;;;;;;3.10;1.10;;;;;;;-6.77;76.90;99793.71;105005;1271;73237;-23
2022/01/19 02:29:23;;;;;;;1.30;0.70;;;;;;;-6.98;77.86;99786.93;105030;1270;61043;-22
2022/01/19 02:42:40;;;;;;;3.70;1.20;;;;;;;-6.19;74.34;99779.70;104789;1271;60992;-23
2022/01/19 02:50:32;;;;;;;2.80;0.90;;;;;;;-6.70;76.03;99766.55;104732;1271;72804;-25
2022/01/19 02:53:01;;;;;;;2.10;0.80;;;;;;;-6.85;76.44;99769.06;104680;1271;61910;-25
2022/01/19 02:55:31;;;;;;;9.80;0.60;;;;;;;-7.03;77.26;99772.40;104916;1271;61067;-24
2022/01/19 02:58:00;;;;;;;2.30;0.90;;;;;;;-7.17;77.97;99777.78;104868;1271;75480;-23
2022/01/19 03:08:41;;;;;;;5.10;1.70;;;;;;;-5.96;73.32;99759.50;105045;1271;61086;-23
2022/01/19 03:09:04;;;;;;;1.50;1.00;;;;;;;-6.26;74.01;99753.33;105090;1271;61016;-23
2022/01/19 03:11:34;;;;;;;3.00;0.80;;;;;;;-6.48;74.43;99755.56;105176;1271;75849;-23
2022/01/19 03:14:04;;;;;;;1.80;1.30;;;;;;;-6.68;75.64;99751.51;105114;1271;76030;-23
2022/01/19 03:16:34;;;;;;;1.90;0.80;;;;;;;-6.88;76.36;99751.49;105072;1271;72894;-23
2022/01/19 03:19:03;;;;;;;2.10;1.30;;;;;;;-7.05;76.52;99747.92;104920;1270;375382;-24
2022/01/19 03:21:32;;;;;;;3.80;1.50;;;;;;;-7.20;77.49;99744.86;104790;1274;61176;-23
2022/01/19 03:24:01;;;;;;;1.50;0.90;;;;;;;-7.34;78.30;99748.03;105106;1270;74618;-23
2022/01/19 03:26:30;;;;;;;3.30;1.20;;;;;;;-7.43;78.74;99744.96;105119;1271;76141;-23
2022/01/19 03:29:19;;;;;;;1.30;1.00;;;;;;;-7.38;79.18;99736.20;105103;1270;74625;-23
2022/01/19 03:31:47;;;;;;;1.40;0.70;;;;;;;-6.57;77.49;99731.06;105186;1270;61129;-23
2022/01/19 03:34:16;;;;;;;2.80;1.40;;;;;;;-5.92;74.42;99732.60;105104;1271;61036;-23
2022/01/19 03:36:50;;;;;;;3.10;1.40;;;;;;;-5.82;73.47;99731.73;105106;1271;74556;-23
2022/01/19 03:39:19;;;;;;;4.10;1.60;;;;;;;-6.00;74.50;99735.52;105154;1271;74196;-23
2022/01/19 03:41:47;;;;;;;1.30;1.00;;;;;;;-6.22;74.95;99739.30;105054;1270;72914;-23
2022/01/19 03:44:16;;;;;;;2.20;0.90;;;;;;;-6.35;75.74;99736.79;105161;1271;61144;-23
2022/01/19 03:47:02;;;;;;;2.10;0.90;;;;;;;-6.52;76.75;99743.56;105108;1271;61124;-23
2022/01/19 03:49:34;;;;;;;3.30;1.40;;;;;;;-6.62;77.42;99746.78;105082;1273;72700;-23
2022/01/19 03:52:05;;;;;;;3.50;1.50;;;;;;;-6.75;78.03;99744.74;105116;1271;74478;-23
2022/01/19 03:54:41;;;;;;;1.30;0.80;;;;;;;-6.82;78.98;99738.84;104691;1271;74986;-23
2022/01/19 03:57:10;;;;;;;2.10;1.20;;;;;;;-6.89;79.18;99741.20;104725;1271;62115;-23
2022/01/19 03:59:39;;;;;;;3.60;0.90;;;;;;;-6.94;79.54;99743.90;104722;1273;61884;-23
2022/01/19 04:02:07;;;;;;;0.80;0.70;;;;;;;-6.36;78.50;99739.30;104891;1270;76032;-23
2022/01/19 04:07:24;;;;;;;1.40;1.20;;;;;;;-5.27;73.21;99736.03;105121;1270;72875;-23
2022/01/19 04:09:53;;;;;;;0.40;0.40;;;;;;;-5.33;73.49;99731.52;105113;1271;61141;-23
2022/01/19 04:12:41;;;;;;;1.00;0.90;;;;;;;-5.53;74.21;99728.39;104956;1270;61156;-23
2022/01/19 04:15:11;;;;;;;1.50;0.60;;;;;;;-5.76;75.24;99732.54;105119;1271;74723;-23
2022/01/19 04:17:45;;;;;;;1.50;1.00;;;;;;;-5.91;76.31;99737.50;105130;1271;73418;-23
2022/01/19 04:20:15;;;;;;;1.70;0.70;;;;;;;-6.08;77.24;99739.27;105081;1273;74200;-23
2022/01/19 04:22:44;;;;;;;3.40;1.10;;;;;;;-6.16;77.62;99733.38;105017;1270;61125;-23
2022/01/19 04:25:13;;;;;;;2.10;0.90;;;;;;;-6.25;78.07;99732.55;105096;1271;61170;-23
2022/01/19 04:27:43;;;;;;;1.10;0.70;;;;;;;-6.30;78.62;99729.19;104928;1271;75621;-23
2022/01/19 04:30:13;;;;;;;2.60;1.20;;;;;;;-5.79;77.69;99724.26;104924;1270;75090;-23
2022/01/19 04:33:04;;;;;;;3.90;0.70;;;;;;;-4.98;74.44;99722.84;104700;1270;74147;-23
2022/01/19 04:35:46;;;;;;;1.60;1.00;;;;;;;-4.85;73.62;99718.83;104860;1271;61183;-23
2022/01/19 04:47:07;;;;;;;4.10;1.00;;;;;;;-5.49;76.78;99715.33;105123;1271;73483;-24
2022/01/19 05:06:54;;;;;;;1.90;1.10;;;;;;;-4.73;74.62;99715.52;104987;1271;61252;-23
2022/01/19 05:14:39;;;;;;;3.00;0.90;;;;;;;-5.10;76.23;99713.27;105141;1270;73568;-23
2022/01/19 05:17:07;;;;;;;1.00;0.50;;;;;;;-5.15;76.72;99716.00;104783;1271;61170;-23
2022/01/19 05:19:35;;;;;;;1.70;0.80;;;;;;;-5.21;77.25;99710.28;104856;1271;61865;-23
2022/01/19 05:22:05;;;;;;;1.10;0.70;;;;;;;-5.26;77.55;99707.92;104641;1273;73515;-23
2022/01/19 05:24:52;;;;;;;0.30;0.30;;;;;;;-4.68;76.45;99709.71;104913;1270;75739;-24
2022/01/19 05:27:31;;;;;;;0.90;0.80;;;;;;;-3.85;73.86;99715.67;104846;1270;74276;-24
2022/01/19 05:29:59;;;;;;;5.30;1.20;;;;;;;-3.73;72.64;99712.98;104942;1270;61315;-24
2022/01/19 05:32:28;;;;;;;2.10;1.30;;;;;;;-3.86;72.89;99709.23;104794;1271;61166;-24
2022/01/19 05:34:56;;;;;;;4.20;1.20;;;;;;;-3.96;73.56;99711.39;104987;1270;74556;-24
2022/01/19 05:38:00;;;;;;;2.10;1.40;;;;;;;-4.21;74.18;99704.37;104964;1270;76059;-25
2022/01/19 05:40:48;;;;;;;2.70;1.50;;;;;;;-4.39;75.07;99692.16;105001;1270;74214;-24
2022/01/19 05:43:16;;;;;;;4.30;1.70;;;;;;;-4.55;76.41;99691.48;104878;1270;62012;-24
2022/01/19 05:45:45;;;;;;;5.30;2.10;;;;;;;-4.70;77.71;99700.42;105062;1271;61157;-24
2022/01/19 05:48:21;;;;;;;6.00;1.80;;;;;;;-4.76;77.71;99704.70;105170;1270;74770;-24
2022/01/19 05:50:53;;;;;;;3.00;1.20;;;;;;;-4.83;78.51;99704.92;105122;1270;75086;-24
2022/01/19 05:53:26;;;;;;;4.50;2.10;;;;;;;-4.18;77.11;99699.91;105139;1270;74712;-24
2022/01/19 05:55:55;;;;;;;7.40;3.00;;;;;;;-3.44;74.49;99701.75;105167;1271;60989;-24
2022/01/19 05:58:23;;;;;;;6.30;2.00;;;;;;;-3.30;73.72;99704.29;105184;1270;61831;-22
2022/01/19 06:00:55;;;;;;;6.60;2.70;;;;;;;-3.38;73.94;99701.84;105149;1271;75835;-24
2022/01/19 06:03:23;;;;;;;7.30;3.20;;;;;;;-3.56;74.71;99705.30;105035;1273;74777;-23
2022/01/19 06:06:17;;;;;;;5.90;2.80;;;;;;;-3.78;75.96;99703.20;104889;1270;73537;-23
2022/01/19 06:09:09;;;;;;;6.00;3.00;;;;;;;-3.95;77.03;99691.02;104763;1271;61136;-23
2022/01/19 06:11:38;;;;;;;5.30;3.20;;;;;;;-4.08;78.15;99685.73;104898;1270;61098;-23
2022/01/19 06:14:07;;;;;;;8.80;2.50;;;;;;;-4.18;78.80;99680.09;105030;1270;75332;-23
2022/01/19 06:16:35;;;;;;;2.90;2.30;;;;;;;-4.27;80.08;99688.99;104846;1271;73766;-23
2022/01/19 06:19:04;;;;;;;11.40;4.30;;;;;;;-3.84;79.03;99690.02;104876;1270;74424;-23
2022/01/19 06:21:32;;;;;;;8.80;3.60;;;;;;;-3.23;77.23;99685.50;104782;1270;61049;-23
2022/01/19 06:24:02;;;;;;;5.60;1.80;;;;;;;-3.05;76.25;99681.33;105166;1271;61215;-23
2022/01/19 06:26:31;;;;;;;5.10;2.30;;;;;;;-3.14;76.85;99667.36;105065;1273;75595;-23
2022/01/19 06:28:59;;;;;;;9.50;2.70;;;;;;;-3.33;77.83;99666.11;104833;1270;75732;-23
2022/01/19 06:31:27;;;;;;;5.90;2.60;;;;;;;-3.42;78.45;99673.02;104876;1271;74236;-23
2022/01/19 06:33:58;;;;;;;3.90;1.50;;;;;;;-3.55;79.85;99673.55;105049;1270;61154;-23
2022/01/19 06:36:42;;;;;;;7.70;3.50;;;;;;;-3.67;80.73;99663.86;104902;1270;60972;-23
2022/01/19 06:39:29;;;;;;;5.60;1.80;;;;;;;-3.70;81.01;99659.66;104981;1270;75463;-23
2022/01/19 06:42:07;;;;;;;3.90;2.00;;;;;;;-3.02;79.50;99667.85;105101;1270;75466;-23
2022/01/19 06:44:36;;;;;;;4.20;2.00;;;;;;;-2.57;77.08;99663.73;104833;1270;74571;-23
2022/01/19 06:47:05;;;;;;;6.70;2.60;;;;;;;-2.53;76.79;99659.90;104900;1270;60940;-23
2022/01/19 06:49:33;;;;;;;6.00;2.90;;;;;;;-2.66;77.41;99656.90;105136;1270;61597;-23
2022/01/19 06:52:04;;;;;;;6.80;2.90;;;;;;;-2.85;78.25;99658.07;105155;1271;74771;-23
2022/01/19 06:54:34;;;;;;;6.60;2.80;;;;;;;-3.00;78.86;99663.59;104852;1271;75792;-23
2022/01/19 06:57:03;;;;;;;8.40;4.00;;;;;;;-3.16;79.77;99656.86;104785;1270;73158;-23
2022/01/19 06:59:44;;;;;;;12.50;3.80;;;;;;;-3.19;80.51;99668.12;104853;1271;62810;-23
2022/01/19 07:02:35;;;;;;;7.30;2.80;;;;;;;-2.53;78.63;99668.08;105081;1270;62193;-23
2022/01/19 07:05:24;;;;;;;7.20;1.90;;;;;;;-2.16;77.14;99674.02;105116;1270;74613;-23
2022/01/19 07:08:03;;;;;;;16.00;5.00;;;;;;;-2.27;77.41;99673.54;105154;1271;74775;-23
2022/01/19 07:10:32;;;;;;;6.20;3.50;;;;;;;-2.39;78.16;99667.64;105152;1271;73469;-23
2022/01/19 07:13:02;;;;;;;9.40;3.50;;;;;;;-2.54;78.97;99671.30;105079;1270;61229;-23
2022/01/19 07:15:30;;;;;;;3.80;2.60;;;;;;;-2.66;79.89;99667.60;105107;1270;61978;-23
2022/01/19 07:18:01;;;;;;;10.30;4.20;;;;;;;-2.77;80.47;99659.30;104918;1270;74065;-24
2022/01/19 07:20:33;;;;;;;14.10;5.80;;;;;;;-2.81;81.28;99654.60;105059;1270;75982;-23
2022/01/19 07:23:02;;;;;;;8.60;4.30;;;;;;;-2.23;80.00;99660.54;105131;1269;74154;-23
2022/01/19 07:25:31;;;;;;;6.60;3.50;;;;;;;-1.78;78.21;99676.35;104976;1271;61072;-24
2022/01/19 07:28:01;;;;;;;13.60;4.40;;;;;;;-1.84;78.25;99676.47;105178;1270;61736;-24
2022/01/19 07:30:31;;;;;;;11.10;4.70;;;;;;;-2.03;78.91;99669.19;105156;1271;73779;-24
2022/01/19 07:33:11;;;;;;;10.30;5.50;;;;;;;-2.20;79.72;99665.94;105084;1271;76005;-24
2022/01/19 07:35:39;;;;;;;8.80;5.10;;;;;;;-2.43;81.13;99667.38;105024;1270;72280;-24
2022/01/19 07:38:08;;;;;;;12.40;5.40;;;;;;;-2.53;81.45;99662.63;105145;1270;61172;-24
2022/01/19 07:40:38;;;;;;;8.60;3.20;;;;;;;-2.17;80.80;99658.04;104914;1270;61149;-23
2022/01/19 07:43:07;;;;;;;10.60;5.90;;;;;;;-1.71;78.72;99657.80;104855;1270;75894;-25
2022/01/19 07:45:55;;;;;;;8.20;3.40;;;;;;;-1.63;78.31;99661.55;104532;1271;76054;-24
2022/01/19 07:48:47;;;;;;;6.50;2.90;;;;;;;-1.72;78.37;99654.58;104804;1270;74193;-22
2022/01/19 07:51:30;;;;;;;17.60;6.60;;;;;;;-1.88;79.49;99655.43;104823;1271;61201;-23
2022/01/19 07:54:21;;;;;;;8.30;4.50;;;;;;;-2.02;80.31;99659.29;104932;1270;61156;-24
2022/01/19 07:57:11;;;;;;;8.00;4.20;;;;;;;-2.10;81.04;99648.90;105099;1270;73387;-22
2022/01/19 07:59:56;;;;;;;14.90;5.40;;;;;;;-1.51;79.07;99647.33;105050;1270;74886;-26
2022/01/19 08:02:33;;;;;;;14.00;6.50;;;;;;;-1.24;77.46;99640.41;104736;1273;74605;-25
2022/01/19 08:05:40;;;;;;;12.60;5.00;;;;;;;-1.63;78.77;99628.86;104419;1276;61112;-25
2022/01/19 08:08:09;;;;;;;14.60;4.80;;;;;;;-1.56;78.44;99622.74;104415;1276;61322;-24
2022/01/19 08:10:41;;;;;;;9.20;4.50;;;;;;;-1.72;79.12;99629.57;104638;1271;74546;-26
2022/01/19 08:13:09;;;;;;;11.60;5.60;;;;;;;-1.86;79.54;99629.70;104944;1270;74955;-23
2022/01/19 08:15:38;;;;;;;11.50;5.60;;;;;;;-1.94;80.04;99628.85;105157;1269;73448;-26
2022/01/19 08:18:07;;;;;;;5.60;3.40;;;;;;;-1.51;78.88;99641.02;105150;1270;61140;-25
2022/01/19 08:20:36;;;;;;;7.50;3.90;;;;;;;-1.22;77.46;99642.94;104983;1270;61020;-23
2022/01/19 08:23:06;;;;;;;16.00;6.70;;;;;;;-1.02;76.48;99647.40;104972;1270;75174;-24
2022/01/19 08:25:47;;;;;;;13.80;5.40;;;;;;;-1.35;77.22;99641.37;105066;1270;74484;-23
2022/01/19 08:28:16;;;;;;;9.80;5.70;;;;;;;-1.61;78.40;99631.89;105043;1270;73080;-22
2022/01/19 08:30:46;;;;;;;12.50;5.90;;;;;;;-1.84;79.60;99631.36;105137;1271;61061;-23
2022/01/19 08:33:16;;;;;;;8.40;5.00;;;;;;;-1.85;79.91;99630.37;104946;1271;61830;-23
2022/01/19 08:35:58;;;;;;;9.80;5.60;;;;;;;-1.45;78.51;99636.30;105144;1270;74666;-23
2022/01/19 08:38:36;;;;;;;10.70;5.40;;;;;;;-0.84;76.21;99635.05;105098;1270;75838;-23
2022/01/19 08:41:10;;;;;;;4.90;3.00;;;;;;;-0.87;75.88;99630.98;105116;1271;73579;-22
2022/01/19 08:43:39;;;;;;;6.60;3.60;;;;;;;-1.04;76.26;99645.40;105167;1270;61411;-23
2022/01/19 08:46:08;;;;;;;16.80;7.00;;;;;;;-1.18;77.00;99641.46;105116;1271;61874;-23
2022/01/19 08:49:10;;;;;;;9.90;6.00;;;;;;;-1.44;78.32;99642.76;104585;1270;74504;-23
2022/01/19 08:52:09;;;;;;;16.70;7.30;;;;;;;-1.58;78.88;99643.58;104879;1270;75789;-23
2022/01/19 08:54:42;;;;;;;6.60;3.90;;;;;;;-1.64;79.44;99639.43;104899;1270;74468;-23
2022/01/19 08:57:11;;;;;;;11.20;5.50;;;;;;;-1.02;77.03;99645.17;104745;1270;61164;-23
2022/01/19 08:59:39;;;;;;;9.20;5.70;;;;;;;-0.90;76.43;99642.35;104907;1270;61137;-23
2022/01/19 09:02:08;;;;;;;12.20;5.30;;;;;;;-0.93;76.52;99633.21;104918;1270;75326;-23
2022/01/19 09:04:37;;;;;;;14.00;7.30;;;;;;;-1.04;76.54;99623.75;104900;1270;75976;-23
2022/01/19 09:07:24;;;;;;;17.40;7.80;;;;;;;-1.26;77.39;99618.82;105107;1270;74224;-23
2022/01/19 09:09:52;;;;;;;18.40;7.90;;;;;;;-1.27;77.64;99606.43;105140;1270;61068;-23
2022/01/19 09:12:21;;;;;;;19.70;8.00;;;;;;;-1.35;77.66;99593.48;105213;1270;61039;-23
2022/01/19 09:14:49;;;;;;;12.40;4.90;;;;;;;-1.35;77.69;99596.05;105134;1270;75327;-23
2022/01/19 09:17:19;;;;;;;16.70;9.40;;;;;;;-0.62;75.32;99585.01;105138;1270;76002;-23
2022/01/19 09:19:47;;;;;;;17.50;7.40;;;;;;;-0.48;73.81;99581.57;105118;1270;73505;-23
2022/01/19 09:22:16;;;;;;;20.40;9.60;;;;;;;-0.56;73.97;99571.20;105126;1271;61139;-23
2022/01/19 09:24:44;;;;;;;12.70;7.30;;;;;;;-0.71;74.36;99566.16;105156;1270;61113;-23
2022/01/19 09:27:15;;;;;;;13.60;8.20;;;;;;;-0.81;74.29;99563.02;105141;1270;75358;-23
2022/01/19 09:29:45;;;;;;;11.90;7.30;;;;;;;-1.00;75.51;99565.02;105121;1270;76087;-23
2022/01/19 09:32:19;;;;;;;18.50;6.50;;;;;;;-1.14;75.59;99557.38;105119;1270;73234;-23
2022/01/19 09:34:54;;;;;;;9.00;6.00;;;;;;;-1.23;75.98;99551.27;105146;1270;61565;-23
2022/01/19 09:37:22;;;;;;;14.50;8.60;;;;;;;-0.72;74.58;99556.96;104911;1270;62155;-23
2022/01/19 09:39:58;;;;;;;14.30;7.40;;;;;;;-0.52;73.27;99552.84;104946;1270;73963;-23
2022/01/19 09:42:26;;;;;;;15.70;6.70;;;;;;;-0.61;73.23;99554.62;104886;1271;75991;-23
2022/01/19 09:44:55;;;;;;;12.00;5.90;;;;;;;-0.80;73.88;99558.23;104912;1270;74338;-23
2022/01/19 09:47:24;;;;;;;12.30;6.70;;;;;;;-1.02;74.17;99551.60;104896;1269;61115;-23
2022/01/19 09:49:52;;;;;;;14.70;7.60;;;;;;;-1.39;74.76;99545.37;104918;1270;61125;-23
2022/01/19 09:52:21;;;;;;;18.00;8.50;;;;;;;-1.57;75.60;99548.54;105067;1270;75598;-23
2022/01/19 09:54:49;;;;;;;12.70;7.40;;;;;;;-1.72;75.60;99538.14;104938;1270;76570;-23
2022/01/19 09:57:19;;;;;;;13.60;7.50;;;;;;;-1.49;74.80;99538.45;104886;1270;74534;-22
2022/01/19 09:59:47;;;;;;;15.10;6.00;;;;;;;-1.27;73.98;99546.98;104878;1270;61304;-23
2022/01/19 10:02:16;;;;;;;10.30;6.40;;;;;;;-1.13;73.01;99538.42;104978;1270;61039;-22
2022/01/19 10:04:47;;;;;;;17.50;6.90;;;;;;;-1.38;73.03;99533.27;105032;1270;72939;-23
2022/01/19 10:07:23;;;;;;;9.20;5.40;;;;;;;-1.66;73.46;99530.52;104812;1270;75114;-23
2022/01/19 10:09:52;;;;;;;11.20;6.50;;;;;;;-1.73;73.98;99536.30;104781;1270;73287;-23
2022/01/19 10:18:16;;;;;;;8.40;5.20;;;;;;;-1.53;72.80;99536.67;105003;1271;74623;-23
2022/01/19 10:20:46;;;;;;;11.20;6.10;;;;;;;-1.44;71.31;99525.73;104874;1271;76103;-25
2022/01/19 10:23:33;;;;;;;9.00;5.30;;;;;;;-1.51;71.74;99523.19;105104;1270;71630;-23
2022/01/19 10:26:03;;;;;;;6.70;4.20;;;;;;;-1.54;72.09;99513.55;104890;1270;61168;-23
2022/01/19 10:28:35;;;;;;;10.10;5.50;;;;;;;-1.58;72.10;99507.85;104767;1271;61772;-23
2022/01/19 10:31:03;;;;;;;5.10;2.60;;;;;;;-1.72;72.85;99500.17;104787;1270;74496;-23
2022/01/19 10:33:32;;;;;;;13.80;6.80;;;;;;;-1.82;73.70;99496.84;104628;1273;76264;-24
2022/01/19 10:36:02;;;;;;;8.70;4.20;;;;;;;-1.98;74.03;99502.48;104896;1270;73349;-24
2022/01/19 10:38:30;;;;;;;9.40;4.40;;;;;;;-1.66;73.11;99494.24;104757;1270;61106;-23
2022/01/19 10:41:05;;;;;;;10.40;4.00;;;;;;;-1.18;71.30;99500.04;104956;1270;61047;-24
2022/01/19 10:43:34;;;;;;;7.30;4.70;;;;;;;-1.26;71.29;99476.89;104810;1271;75391;-24
2022/01/19 10:46:15;;;;;;;10.10;4.50;;;;;;;-1.22;71.90;99485.65;104932;1270;75983;-24
2022/01/19 10:48:43;;;;;;;6.90;4.00;;;;;;;-1.53;71.17;99474.52;104784;1270;73253;-24
2022/01/19 10:51:19;;;;;;;7.00;4.40;;;;;;;-1.65;72.38;99483.51;104942;1270;60980;-24
2022/01/19 10:54:05;;;;;;;9.70;4.90;;;;;;;-1.77;73.41;99489.57;105108;1270;61767;-24
2022/01/19 10:56:33;;;;;;;14.10;6.50;;;;;;;-1.94;73.94;99494.73;105161;1270;75498;-24
2022/01/19 10:59:04;;;;;;;11.50;5.70;;;;;;;-2.10;74.87;99490.69;105134;1270;75197;-23
2022/01/19 11:01:46;;;;;;;9.20;5.30;;;;;;;-1.92;74.93;99504.05;105159;1273;74428;-24
2022/01/19 11:04:19;;;;;;;7.10;3.60;;;;;;;-1.80;74.79;99509.20;104993;1270;61039;-24
2022/01/19 11:06:49;;;;;;;5.40;2.70;;;;;;;-1.38;73.62;99514.02;104802;1270;61216;-23
2022/01/19 11:09:22;;;;;;;11.20;3.90;;;;;;;-1.34;73.21;99505.41;104746;1270;75760;-24
2022/01/19 11:11:52;;;;;;;13.10;5.80;;;;;;;-1.71;73.89;99494.03;104836;1270;75987;-24
2022/01/19 11:14:23;;;;;;;12.40;6.50;;;;;;;-1.86;74.82;99490.46;104768;1270;72854;-24
2022/01/19 11:16:52;;;;;;;12.80;6.50;;;;;;;-2.08;75.82;99489.59;104871;1270;61150;-24
2022/01/19 11:19:22;;;;;;;4.60;3.50;;;;;;;-2.12;75.95;99483.21;104942;1270;61156;-23
2022/01/19 11:22:12;;;;;;;6.50;3.90;;;;;;;-1.91;75.95;99483.59;104721;1270;75631;-24
2022/01/19 11:24:46;;;;;;;7.10;5.20;;;;;;;-1.37;73.74;99484.02;104893;1270;76009;-24
2022/01/19 11:27:14;;;;;;;4.20;3.10;;;;;;;-1.27;73.52;99472.86;104797;1270;74201;-24
2022/01/19 11:29:42;;;;;;;9.80;4.50;;;;;;;-1.24;74.28;99469.34;104907;1270;61137;-22
2022/01/19 11:32:16;;;;;;;8.70;4.30;;;;;;;-1.29;74.90;99465.58;104921;1271;61083;-26
2022/01/19 11:34:50;;;;;;;11.00;6.60;;;;;;;-1.45;75.37;99461.21;104704;1270;75919;-23
2022/01/19 11:37:38;;;;;;;11.40;6.50;;;;;;;-1.55;75.61;99452.94;104763;1270;76043;-23
2022/01/19 11:40:08;;;;;;;9.10;4.30;;;;;;;-1.55;75.59;99447.32;105022;1270;72831;-24
2022/01/19 11:42:37;;;;;;;11.40;4.70;;;;;;;-1.07;73.77;99444.55;104785;1270;61148;-23
2022/01/19 11:45:07;;;;;;;7.40;5.00;;;;;;;-0.59;71.97;99442.69;105061;1270;61730;-23
2022/01/19 11:47:35;;;;;;;11.40;5.20;;;;;;;-0.47;71.34;99443.02;104970;1270;75571;-23
2022/01/19 11:50:09;;;;;;;9.40;4.80;;;;;;;-0.26;70.62;99431.65;104862;1271;75191;-23
2022/01/19 11:52:40;;;;;;;8.80;4.30;;;;;;;-0.23;70.19;99426.27;105136;1270;74405;-23
2022/01/19 11:55:14;;;;;;;10.10;5.30;;;;;;;-0.66;70.66;99422.79;105137;1270;61145;-23
2022/01/19 11:57:43;;;;;;;14.10;7.80;;;;;;;-1.18;72.44;99428.98;104782;1270;62055;-23
2022/01/19 12:00:15;;;;;;;10.00;4.90;;;;;;;-1.26;73.19;99424.27;104875;1271;74624;-23
2022/01/19 12:02:48;;;;;;;7.80;4.80;;;;;;;-1.40;73.55;99417.98;105141;1270;75969;-22
2022/01/19 12:05:40;;;;;;;10.50;5.10;;;;;;;-1.50;74.06;99423.20;105094;1270;74535;-23
2022/01/19 12:08:21;;;;;;;12.10;5.50;;;;;;;-1.39;73.89;99430.40;105146;1270;62464;-23
2022/01/19 12:10:54;;;;;;;8.30;4.70;;;;;;;-0.75;71.68;99431.73;105074;1270;61103;-23
2022/01/19 12:17:09;;;;;;;8.50;4.10;;;;;;;-0.43;69.65;99432.17;105132;1270;73815;-23
2022/01/19 12:19:10;;;;;;;9.30;4.70;;;;;;;-0.73;69.72;99421.62;105004;1270;74672;-23
2022/01/19 12:21:43;;;;;;;8.90;4.20;;;;;;;-0.89;71.09;99429.56;105140;1270;61134;-23
2022/01/19 12:24:42;;;;;;;10.70;4.70;;;;;;;-1.07;71.12;99420.33;105129;1270;61048;-23
2022/01/19 12:27:14;;;;;;;10.90;5.40;;;;;;;-1.36;71.08;99412.60;105136;1270;75543;-23
2022/01/19 12:29:46;;;;;;;10.80;5.10;;;;;;;-1.51;70.78;99399.89;105132;1270;76168;-23
2022/01/19 12:32:18;;;;;;;7.70;4.40;;;;;;;-1.67;71.65;99395.01;104976;1273;73900;-23
2022/01/19 12:34:48;;;;;;;11.80;3.60;;;;;;;-1.69;72.11;99379.22;105107;1270;61130;-23
2022/01/19 12:37:32;;;;;;;7.70;4.10;;;;;;;-1.38;70.12;99378.91;105046;1270;61005;-22
2022/01/19 12:40:03;;;;;;;9.30;5.40;;;;;;;-1.00;68.59;99389.80;105082;1270;75466;-23
2022/01/19 12:42:44;;;;;;;9.00;4.80;;;;;;;-0.91;68.08;99391.44;104766;1270;76058;-24
2022/01/19 12:45:17;;;;;;;11.50;6.50;;;;;;;-1.15;68.69;99388.36;104779;1270;73405;-23
2022/01/19 12:47:47;;;;;;;10.30;6.60;;;;;;;-1.31;69.39;99386.42;104935;1270;61247;-23
2022/01/19 12:50:16;;;;;;;12.80;4.80;;;;;;;-1.47;69.60;99391.95;104842;1270;61109;-23
2022/01/19 12:52:57;;;;;;;13.40;6.30;;;;;;;-1.53;70.23;99394.48;104986;1270;74891;-23
2022/01/19 12:55:30;;;;;;;9.50;5.40;;;;;;;-1.64;70.24;99382.67;104872;1270;75947;-23
2022/01/19 12:57:59;;;;;;;15.70;6.80;;;;;;;-1.65;70.35;99382.70;105131;1270;74513;-23
2022/01/19 13:00:30;;;;;;;8.20;4.80;;;;;;;-1.73;70.47;99383.57;105151;1270;61071;-23
2022/01/19 13:02:58;;;;;;;8.20;4.60;;;;;;;-1.83;71.24;99378.92;105134;1270;61123;-23
2022/01/19 13:05:31;;;;;;;9.50;4.20;;;;;;;-1.84;72.04;99373.83;105177;1270;75628;-23
2022/01/19 13:08:03;;;;;;;12.90;4.90;;;;;;;-1.23;70.23;99370.84;104949;1271;74987;-24
2022/01/19 13:13:10;;;;;;;9.00;4.30;;;;;;;-0.52;67.49;99375.30;105125;1270;61058;-23
2022/01/19 13:15:55;;;;;;;10.20;5.30;;;;;;;-0.66;66.78;99365.64;105160;1270;61138;-23
2022/01/19 13:18:37;;;;;;;8.20;4.70;;;;;;;-0.94;67.82;99359.84;105109;1270;75387;-23
2022/01/19 13:21:07;;;;;;;10.30;5.00;;;;;;;-1.17;68.04;99351.27;105101;1273;76022;-23